Hana — T2AX5 — position and weather

sailwx.info

Track history (hours):
 
Tides and Currents Weather Stations Pressure Air Temp Water Temp Dewpoint Dewpoint Depression Visibility Wind Speed Wind Dir Waves Ship Positions

Hana

Last reported at 2017-Sep-24 15:30 UTC. Time now 2017-Sep-24 15:49 UTC.
Position N 36°05' W 005°18'.

Length 196 m; draft 6.9 m.

Type: Ship. MMSI: 572951210.

Date/timePositionNaut miles runAvg speedWind from/ knotsBaromVisibWave heightAir tempDewpointWater temp
2017-Sep-24 15:30N 36°05' W 005°18'4 7.1
2017-Sep-24 15:00N 36°08' W 005°14'1 1.7
2017-Sep-24 14:09N 36°08' W 005°13'0 2.7
2017-Sep-24 14:00N 36°08' W 005°13'2 2.6
2017-Sep-24 13:24N 36°06' W 005°13'1 1.9
2017-Sep-24 13:00N 36°06' W 005°12'1 1.5
2017-Sep-24 12:24N 36°05' W 005°12'2 3.2
2017-Sep-24 11:39N 36°03' W 005°14'1 6.0
2017-Sep-24 11:30N 36°03' W 005°15'4 7.9
2017-Sep-24 11:00N 36°04' W 005°10'  
2017-Sep-21 17:09N 36°39' E 013°38'413.2
2017-Sep-21 16:53N 36°38' E 013°43'513.1
2017-Sep-21 16:30N 36°37' E 013°49'612.8
2017-Sep-21 16:00N 36°36' E 013°57'612.5
2017-Sep-21 15:31N 36°34' E 014°04'712.9
2017-Sep-21 15:00N 36°33' E 014°12'613.0
2017-Sep-21 14:30N 36°31' E 014°20'612.9
2017-Sep-21 14:01N 36°29' E 014°27'612.5
2017-Sep-21 13:31N 36°27' E 014°35'712.8
2017-Sep-21 13:00N 36°25' E 014°42'713.3
2017-Sep-21 12:30N 36°23' E 014°50'  
Track history (hours):
 
Tides and Currents Weather Stations Pressure Air Temp Water Temp Dewpoint Dewpoint Depression Visibility Wind Speed Wind Dir Waves Ship Positions

Hana

Last reported at 2017-Sep-24 15:30 UTC. Time now 2017-Sep-24 15:49 UTC.
Position N 36°05' W 005°18'.

Length 196 m; draft 6.9 m.

Type: Ship. MMSI: 572951210.

Date/timePositionNaut miles runAvg speedWind from/ knotsBaromVisibWave heightAir tempDewpointWater temp
2017-Sep-24 15:30N 36°05' W 005°18'4 7.1
2017-Sep-24 15:00N 36°08' W 005°14'1 1.7
2017-Sep-24 14:09N 36°08' W 005°13'0 2.7
2017-Sep-24 14:00N 36°08' W 005°13'2 2.6
2017-Sep-24 13:24N 36°06' W 005°13'1 1.9
2017-Sep-24 13:00N 36°06' W 005°12'1 1.5
2017-Sep-24 12:24N 36°05' W 005°12'2 3.2
2017-Sep-24 11:39N 36°03' W 005°14'1 6.0
2017-Sep-24 11:30N 36°03' W 005°15'4 7.9
2017-Sep-24 11:00N 36°04' W 005°10'  
2017-Sep-21 17:09N 36°39' E 013°38'413.2
2017-Sep-21 16:53N 36°38' E 013°43'513.1
2017-Sep-21 16:30N 36°37' E 013°49'612.8
2017-Sep-21 16:00N 36°36' E 013°57'612.5
2017-Sep-21 15:31N 36°34' E 014°04'712.9
2017-Sep-21 15:00N 36°33' E 014°12'613.0
2017-Sep-21 14:30N 36°31' E 014°20'612.9
2017-Sep-21 14:01N 36°29' E 014°27'612.5
2017-Sep-21 13:31N 36°27' E 014°35'712.8
2017-Sep-21 13:00N 36°25' E 014°42'713.3
2017-Sep-21 12:30N 36°23' E 014°50'  

Dump ship's entire track history